createdAt,value
2023-01-07T00:04:49.090Z,7.80
2023-01-07T00:09:51.267Z,7.80
2023-01-07T00:14:53.432Z,7.70
2023-01-07T00:19:56.972Z,7.70
2023-01-07T00:24:59.158Z,7.70
2023-01-07T00:30:01.341Z,7.70
2023-01-07T00:35:21.462Z,7.70
2023-01-07T00:40:24.176Z,7.70
2023-01-07T00:45:26.887Z,7.70
2023-01-07T00:50:32.251Z,7.60
2023-01-07T00:55:34.602Z,7.60
2023-01-07T01:00:39.589Z,7.60
2023-01-07T01:05:43.308Z,7.50
2023-01-07T01:10:45.627Z,7.60
2023-01-07T01:15:49.669Z,7.50
2023-01-07T01:20:53.272Z,7.50
2023-01-07T01:26:03.699Z,7.50
2023-01-07T01:31:08.393Z,7.50
2023-01-07T01:36:13.531Z,7.50
2023-01-07T01:41:16.710Z,7.50
2023-01-07T01:46:23.139Z,7.60
2023-01-07T01:51:34.471Z,7.60
2023-01-07T01:56:40.763Z,7.60
2023-01-07T02:01:43.124Z,7.60
2023-01-07T02:06:53.576Z,7.70
2023-01-07T02:12:05.914Z,7.70
2023-01-07T02:17:20.372Z,7.70
2023-01-07T02:22:47.231Z,7.80
2023-01-07T02:28:11.784Z,7.90
2023-01-07T02:33:34.091Z,7.90
2023-01-07T02:38:45.751Z,8.00
2023-01-07T02:43:56.437Z,8.00
2023-01-07T02:49:02.050Z,8.10
2023-01-07T02:54:06.417Z,8.10
2023-01-07T02:59:25.810Z,8.20
2023-01-07T03:04:46.048Z,8.20
2023-01-07T03:09:54.392Z,8.20
2023-01-07T03:15:06.053Z,8.20
2023-01-07T03:20:13.110Z,8.20
2023-01-07T03:25:17.077Z,8.20
2023-01-07T03:30:20.748Z,8.10
2023-01-07T03:35:26.288Z,8.10
2023-01-07T03:40:28.744Z,8.10
2023-01-07T03:45:31.416Z,8.20
2023-01-07T03:50:35.090Z,8.10
2023-01-07T03:55:37.574Z,8.10
2023-01-07T04:00:39.706Z,8.00
2023-01-07T04:05:43.203Z,8.00
2023-01-07T04:10:45.361Z,8.00
2023-01-07T04:15:47.509Z,7.90
2023-01-07T04:20:51.023Z,7.80
2023-01-07T04:25:53.178Z,7.80
2023-01-07T04:30:55.399Z,7.80
2023-01-07T04:35:59.029Z,7.80
2023-01-07T04:41:01.622Z,7.80
2023-01-07T04:46:04.409Z,7.80
2023-01-07T04:51:08.328Z,7.70
2023-01-07T04:56:10.524Z,7.70
2023-01-07T05:01:12.817Z,7.70
2023-01-07T05:06:19.040Z,7.60
2023-01-07T05:11:22.560Z,7.70
2023-01-07T05:16:24.765Z,7.70
2023-01-07T05:21:28.337Z,7.70
2023-01-07T05:26:30.565Z,7.70
2023-01-07T05:31:32.776Z,7.80
2023-01-07T05:36:36.329Z,7.70
2023-01-07T05:41:38.467Z,7.80
2023-01-07T05:46:40.712Z,7.80
2023-01-07T05:51:44.298Z,7.80
2023-01-07T05:56:46.555Z,7.80
2023-01-07T06:01:48.724Z,7.80
2023-01-07T06:06:52.228Z,7.90
2023-01-07T06:11:54.357Z,7.90
2023-01-07T06:16:59.672Z,7.80
2023-01-07T06:22:03.263Z,7.80
2023-01-07T06:27:05.817Z,7.80
2023-01-07T06:32:08.016Z,7.90
2023-01-07T06:37:11.502Z,8.00
2023-01-07T06:42:13.738Z,8.00
2023-01-07T06:47:15.904Z,8.00
2023-01-07T06:52:19.636Z,8.00
2023-01-07T06:57:21.782Z,7.90
2023-01-07T07:02:25.874Z,7.80
2023-01-07T07:07:29.464Z,7.80
2023-01-07T07:12:31.607Z,7.80
2023-01-07T07:17:33.779Z,7.80
2023-01-07T07:22:37.442Z,7.80
2023-01-07T07:27:39.608Z,7.90
2023-01-07T07:32:41.792Z,7.90
2023-01-07T07:37:45.350Z,7.90
2023-01-07T07:43:11.455Z,7.70
2023-01-07T07:48:10.532Z,7.80
2023-01-07T07:53:15.307Z,7.90
2023-01-07T07:58:17.480Z,8.00
2023-01-07T08:03:19.648Z,7.90
2023-01-07T08:08:25.618Z,7.90
2023-01-07T08:13:27.772Z,8.00
2023-01-07T08:18:29.891Z,8.10
2023-01-07T08:23:34.873Z,8.30
2023-01-07T08:28:37.800Z,8.40
2023-01-07T08:33:40.525Z,8.50
2023-01-07T08:38:44.343Z,8.50
2023-01-07T08:43:46.603Z,8.50
2023-01-07T08:48:48.752Z,8.60
2023-01-07T08:53:52.354Z,8.60
2023-01-07T08:58:54.604Z,8.40
2023-01-07T09:03:59.858Z,8.40
2023-01-07T09:09:03.415Z,8.40
2023-01-07T09:14:05.579Z,8.60
2023-01-07T09:19:07.791Z,8.50
2023-01-07T09:24:11.415Z,8.50
2023-01-07T09:29:13.704Z,8.50
2023-01-07T09:34:15.881Z,8.60
2023-01-07T09:39:19.401Z,8.80
2023-01-07T09:44:39.681Z,9.00
2023-01-07T09:54:49.564Z,9.90
2023-01-07T09:59:51.747Z,10.10
2023-01-07T10:05:03.474Z,10.20
2023-01-07T10:20:47.863Z,10.30
2023-01-07T10:25:53.709Z,10.30
2023-01-07T10:31:03.821Z,10.20
2023-01-07T10:36:21.546Z,10.00
2023-01-07T10:41:30.456Z,10.10
2023-01-07T10:46:49.728Z,10.20
2023-01-07T10:52:14.000Z,10.40
2023-01-07T10:57:19.512Z,10.60
2023-01-07T11:02:30.189Z,10.70
2023-01-07T11:07:45.075Z,10.80
2023-01-07T11:12:51.534Z,10.90
2023-01-07T11:17:56.797Z,11.10
2023-01-07T11:28:34.751Z,11.40
2023-01-07T11:34:01.267Z,11.60
2023-01-07T11:39:11.841Z,11.80
2023-01-07T11:44:18.060Z,12.90
2023-01-07T11:49:36.045Z,14.90
2023-01-07T11:54:38.348Z,16.30
2023-01-07T11:59:41.893Z,17.00
2023-01-07T12:10:05.380Z,17.90
2023-01-07T12:15:21.092Z,18.20
2023-01-07T13:18:36.003Z,13.90
2023-01-07T13:24:07.409Z,13.40
2023-01-07T13:29:28.846Z,12.80
2023-01-07T13:34:43.081Z,12.40
2023-01-07T13:50:36.276Z,12.10
2023-01-07T13:55:46.078Z,12.20
2023-01-07T14:11:42.233Z,13.10
2023-01-07T14:16:46.692Z,12.90
2023-01-07T14:22:01.091Z,12.50
2023-01-07T14:27:29.094Z,12.20
2023-01-07T14:32:33.551Z,12.20
2023-01-07T14:37:45.195Z,12.10
2023-01-07T14:42:48.806Z,11.70
2023-01-07T14:47:55.060Z,11.40
2023-01-07T14:53:21.397Z,11.00
2023-01-07T14:58:40.464Z,10.60
2023-01-07T15:14:44.632Z,9.80
2023-01-07T15:19:47.081Z,9.50
2023-01-07T15:24:57.276Z,9.30
2023-01-07T15:30:08.541Z,9.20
2023-01-07T15:35:20.050Z,9.00
2023-01-07T15:45:44.270Z,8.90
2023-01-07T15:50:46.787Z,8.80
2023-01-07T15:55:54.359Z,8.70
2023-01-07T16:01:00.606Z,8.50
2023-01-07T16:06:03.298Z,8.40
2023-01-07T16:11:08.873Z,8.30
2023-01-07T16:26:47.427Z,7.90
2023-01-07T16:31:51.669Z,7.80
2023-01-07T16:36:57.741Z,7.70
2023-01-07T16:42:15.946Z,7.60
2023-01-07T16:47:22.332Z,7.50
2023-01-07T16:52:29.672Z,7.40
2023-01-07T16:57:49.067Z,7.30
2023-01-07T17:02:56.883Z,7.20
2023-01-07T17:08:05.193Z,7.10
2023-01-07T17:23:46.131Z,6.90
2023-01-07T17:28:50.782Z,6.80
2023-01-07T17:33:53.783Z,6.80
2023-01-07T17:38:57.337Z,6.80
2023-01-07T17:43:59.515Z,6.60
2023-01-07T17:49:02.078Z,6.60
2023-01-07T17:54:08.840Z,6.60
2023-01-07T18:09:50.499Z,6.40
2023-01-07T18:14:55.205Z,6.50
2023-01-07T18:19:57.577Z,6.50
2023-01-07T18:25:01.136Z,6.40
2023-01-07T18:30:03.331Z,6.40
2023-01-07T18:35:08.309Z,6.30
2023-01-07T18:40:12.779Z,6.20
2023-01-07T18:45:15.378Z,6.00
2023-01-07T18:50:18.029Z,5.90
2023-01-07T18:55:22.033Z,5.90
2023-01-07T19:00:24.469Z,5.80
2023-01-07T19:05:26.701Z,5.70
2023-01-07T19:10:30.321Z,5.90
2023-01-07T19:15:33.729Z,5.70
2023-01-07T19:20:36.272Z,5.40
2023-01-07T19:25:40.433Z,5.40
2023-01-07T19:30:43.540Z,5.40
2023-01-07T19:35:47.289Z,5.40
2023-01-07T19:40:50.946Z,5.40
2023-01-07T19:45:55.383Z,5.30
2023-01-07T19:50:58.530Z,5.30
2023-01-07T19:56:03.376Z,5.20
2023-01-07T20:01:05.998Z,5.20
2023-01-07T20:06:10.470Z,5.10
2023-01-07T20:11:14.901Z,5.10
2023-01-07T20:16:18.397Z,5.10
2023-01-07T20:21:22.520Z,5.20
2023-01-07T20:26:28.368Z,5.10
2023-01-07T20:31:31.976Z,5.10
2023-01-07T20:36:34.297Z,5.10
2023-01-07T20:41:38.873Z,5.00
2023-01-07T20:46:41.510Z,4.90
2023-01-07T20:51:44.064Z,4.90
2023-01-07T20:56:47.610Z,4.90
2023-01-07T21:01:51.336Z,4.80
2023-01-07T21:06:53.632Z,4.80
2023-01-07T21:11:57.225Z,4.80
2023-01-07T21:16:59.473Z,4.80
2023-01-07T21:22:04.738Z,4.80
2023-01-07T21:27:08.287Z,4.80
2023-01-07T21:32:10.529Z,4.70
2023-01-07T21:37:12.764Z,4.60
2023-01-07T21:42:16.421Z,4.50
2023-01-07T21:47:18.601Z,4.40
2023-01-07T21:52:20.889Z,4.30
2023-01-07T21:57:25.496Z,4.20
2023-01-07T22:02:27.695Z,4.20
2023-01-07T22:07:29.890Z,4.20
2023-01-07T22:12:33.432Z,4.00
2023-01-07T22:17:35.611Z,3.90
2023-01-07T22:22:37.808Z,3.90
2023-01-07T22:27:41.316Z,3.90
2023-01-07T22:32:43.494Z,4.00
2023-01-07T22:37:46.281Z,4.10
2023-01-07T22:42:55.843Z,4.20
2023-01-07T22:47:58.408Z,4.20
2023-01-07T22:53:00.603Z,4.10
2023-01-07T22:58:05.439Z,4.00
2023-01-07T23:03:07.979Z,4.00
2023-01-07T23:08:10.408Z,3.90
2023-01-07T23:13:14.387Z,4.00
2023-01-07T23:18:16.569Z,3.90
2023-01-07T23:23:18.712Z,3.90
2023-01-07T23:28:22.218Z,3.90
2023-01-07T23:33:24.451Z,4.00
2023-01-07T23:38:27.721Z,4.10
2023-01-07T23:43:31.285Z,4.00
2023-01-07T23:48:35.719Z,4.00
2023-01-07T23:53:38.534Z,4.00
2023-01-07T23:58:44.881Z,4.00
